sensor_id;sensor_type;location;lat;lon;timestamp;pressure;altitude;pressure_sealevel;temperature;humidity
33280;BME280;20403;43.114;12.434;2023-03-19T00:01:05;99483.63;;;9.61;100.00
33280;BME280;20403;43.114;12.434;2023-03-19T00:03:32;99492.03;;;9.70;100.00
33280;BME280;20403;43.114;12.434;2023-03-19T00:05:57;99488.84;;;9.61;100.00
33280;BME280;20403;43.114;12.434;2023-03-19T00:08:23;99493.44;;;9.65;100.00
33280;BME280;20403;43.114;12.434;2023-03-19T00:10:48;99491.38;;;9.81;100.00
33280;BME280;20403;43.114;12.434;2023-03-19T00:13:14;99490.75;;;9.85;100.00
33280;BME280;20403;43.114;12.434;2023-03-19T00:15:39;99478.81;;;10.09;100.00
33280;BME280;20403;43.114;12.434;2023-03-19T00:18:05;99480.97;;;10.19;100.00
33280;BME280;20403;43.114;12.434;2023-03-19T00:20:31;99481.97;;;10.18;100.00
33280;BME280;20403;43.114;12.434;2023-03-19T00:22:57;99469.97;;;10.17;100.00
33280;BME280;20403;43.114;12.434;2023-03-19T00:25:22;99478.78;;;10.16;100.00
33280;BME280;20403;43.114;12.434;2023-03-19T00:27:48;99484.63;;;10.12;100.00
33280;BME280;20403;43.114;12.434;2023-03-19T00:30:14;99484.66;;;10.05;100.00
33280;BME280;20403;43.114;12.434;2023-03-19T00:32:39;99487.50;;;9.97;100.00
33280;BME280;20403;43.114;12.434;2023-03-19T00:35:05;99483.50;;;10.01;100.00
33280;BME280;20403;43.114;12.434;2023-03-19T00:37:31;99474.31;;;9.92;100.00
33280;BME280;20403;43.114;12.434;2023-03-19T00:39:56;99479.84;;;10.08;100.00
33280;BME280;20403;43.114;12.434;2023-03-19T00:42:22;99475.78;;;10.19;100.00
33280;BME280;20403;43.114;12.434;2023-03-19T00:44:48;99470.94;;;10.23;100.00
33280;BME280;20403;43.114;12.434;2023-03-19T00:47:13;99469.56;;;10.14;100.00
33280;BME280;20403;43.114;12.434;2023-03-19T00:49:38;99468.75;;;10.20;100.00
33280;BME280;20403;43.114;12.434;2023-03-19T00:52:04;99464.63;;;10.05;100.00
33280;BME280;20403;43.114;12.434;2023-03-19T00:54:29;99457.81;;;10.04;100.00
33280;BME280;20403;43.114;12.434;2023-03-19T00:56:56;99453.28;;;10.25;100.00
33280;BME280;20403;43.114;12.434;2023-03-19T00:59:21;99450.47;;;10.26;100.00
33280;BME280;20403;43.114;12.434;2023-03-19T01:01:49;99450.81;;;10.37;100.00
33280;BME280;20403;43.114;12.434;2023-03-19T01:04:16;99439.91;;;10.46;100.00
33280;BME280;20403;43.114;12.434;2023-03-19T01:06:42;99438.13;;;10.47;100.00
33280;BME280;20403;43.114;12.434;2023-03-19T01:09:09;99428.00;;;10.25;100.00
33280;BME280;20403;43.114;12.434;2023-03-19T01:11:35;99420.97;;;10.33;100.00
33280;BME280;20403;43.114;12.434;2023-03-19T01:14:01;99421.50;;;10.41;100.00
33280;BME280;20403;43.114;12.434;2023-03-19T01:16:27;99425.53;;;10.37;100.00
33280;BME280;20403;43.114;12.434;2023-03-19T01:18:52;99419.97;;;10.34;100.00
33280;BME280;20403;43.114;12.434;2023-03-19T01:21:19;99416.97;;;10.30;100.00
33280;BME280;20403;43.114;12.434;2023-03-19T01:23:44;99416.66;;;10.13;100.00
33280;BME280;20403;43.114;12.434;2023-03-19T01:26:10;99423.94;;;10.04;100.00
33280;BME280;20403;43.114;12.434;2023-03-19T01:28:37;99415.16;;;9.99;100.00
33280;BME280;20403;43.114;12.434;2023-03-19T01:31:05;99416.38;;;9.96;100.00
33280;BME280;20403;43.114;12.434;2023-03-19T01:33:31;99421.56;;;10.03;100.00
33280;BME280;20403;43.114;12.434;2023-03-19T01:35:58;99419.00;;;9.96;100.00
33280;BME280;20403;43.114;12.434;2023-03-19T01:38:26;99415.34;;;9.97;100.00
33280;BME280;20403;43.114;12.434;2023-03-19T01:40:52;99414.16;;;9.93;100.00
33280;BME280;20403;43.114;12.434;2023-03-19T01:43:26;99420.19;;;9.94;100.00
33280;BME280;20403;43.114;12.434;2023-03-19T01:45:57;99417.38;;;9.95;100.00
33280;BME280;20403;43.114;12.434;2023-03-19T01:50:53;99409.53;;;10.02;100.00
33280;BME280;20403;43.114;12.434;2023-03-19T01:53:23;99411.06;;;9.78;100.00
33280;BME280;20403;43.114;12.434;2023-03-19T01:55:51;99400.19;;;9.87;100.00
33280;BME280;20403;43.114;12.434;2023-03-19T01:58:19;99407.25;;;9.80;100.00
33280;BME280;20403;43.114;12.434;2023-03-19T02:00:45;99416.28;;;9.78;100.00
33280;BME280;20403;43.114;12.434;2023-03-19T02:03:11;99416.91;;;9.73;100.00
33280;BME280;20403;43.114;12.434;2023-03-19T02:05:39;99423.72;;;9.67;100.00
33280;BME280;20403;43.114;12.434;2023-03-19T02:08:08;99418.16;;;9.64;100.00
33280;BME280;20403;43.114;12.434;2023-03-19T02:10:36;99423.75;;;9.61;100.00
33280;BME280;20403;43.114;12.434;2023-03-19T02:13:01;99422.34;;;9.65;100.00
33280;BME280;20403;43.114;12.434;2023-03-19T02:15:27;99428.56;;;9.64;100.00
33280;BME280;20403;43.114;12.434;2023-03-19T02:17:52;99427.94;;;9.68;100.00
33280;BME280;20403;43.114;12.434;2023-03-19T02:20:50;99427.06;;;9.81;100.00
33280;BME280;20403;43.114;12.434;2023-03-19T02:23:56;99405.63;;;9.79;100.00
33280;BME280;20403;43.114;12.434;2023-03-19T02:26:25;99421.41;;;9.91;100.00
33280;BME280;20403;43.114;12.434;2023-03-19T02:28:53;99414.91;;;9.75;100.00
33280;BME280;20403;43.114;12.434;2023-03-19T02:31:19;99416.81;;;9.86;100.00
33280;BME280;20403;43.114;12.434;2023-03-19T02:36:41;99426.31;;;9.67;100.00
33280;BME280;20403;43.114;12.434;2023-03-19T02:39:12;99425.38;;;9.62;100.00
33280;BME280;20403;43.114;12.434;2023-03-19T02:41:40;99424.38;;;9.56;100.00
33280;BME280;20403;43.114;12.434;2023-03-19T02:44:07;99420.97;;;9.56;100.00
33280;BME280;20403;43.114;12.434;2023-03-19T02:46:35;99417.19;;;9.45;100.00
33280;BME280;20403;43.114;12.434;2023-03-19T02:49:01;99416.25;;;9.26;100.00
33280;BME280;20403;43.114;12.434;2023-03-19T02:51:26;99414.50;;;9.20;100.00
33280;BME280;20403;43.114;12.434;2023-03-19T02:53:52;99412.72;;;9.14;100.00
33280;BME280;20403;43.114;12.434;2023-03-19T02:56:17;99428.94;;;9.02;100.00
33280;BME280;20403;43.114;12.434;2023-03-19T02:58:42;99416.72;;;9.03;100.00
33280;BME280;20403;43.114;12.434;2023-03-19T03:01:08;99420.94;;;9.04;100.00
33280;BME280;20403;43.114;12.434;2023-03-19T03:03:33;99418.53;;;8.89;100.00
33280;BME280;20403;43.114;12.434;2023-03-19T03:05:59;99423.16;;;8.94;100.00
33280;BME280;20403;43.114;12.434;2023-03-19T03:08:24;99421.19;;;8.76;100.00
33280;BME280;20403;43.114;12.434;2023-03-19T03:10:50;99421.38;;;8.48;100.00
33280;BME280;20403;43.114;12.434;2023-03-19T03:13:15;99429.97;;;8.61;100.00
33280;BME280;20403;43.114;12.434;2023-03-19T03:15:41;99428.38;;;8.47;100.00
33280;BME280;20403;43.114;12.434;2023-03-19T03:18:06;99435.16;;;8.61;100.00
33280;BME280;20403;43.114;12.434;2023-03-19T03:20:32;99443.56;;;8.57;100.00
33280;BME280;20403;43.114;12.434;2023-03-19T03:22:57;99443.38;;;8.52;100.00
33280;BME280;20403;43.114;12.434;2023-03-19T03:25:23;99447.72;;;8.38;100.00
33280;BME280;20403;43.114;12.434;2023-03-19T03:27:48;99446.94;;;8.37;100.00
33280;BME280;20403;43.114;12.434;2023-03-19T03:30:14;99447.28;;;8.14;100.00
33280;BME280;20403;43.114;12.434;2023-03-19T03:32:41;99443.28;;;8.12;100.00
33280;BME280;20403;43.114;12.434;2023-03-19T03:35:07;99444.53;;;8.23;100.00
33280;BME280;20403;43.114;12.434;2023-03-19T03:37:33;99454.09;;;8.29;100.00
33280;BME280;20403;43.114;12.434;2023-03-19T03:39:59;99446.75;;;8.39;100.00
33280;BME280;20403;43.114;12.434;2023-03-19T03:42:24;99448.91;;;8.29;100.00
33280;BME280;20403;43.114;12.434;2023-03-19T03:44:49;99450.72;;;8.35;100.00
33280;BME280;20403;43.114;12.434;2023-03-19T03:47:16;99453.94;;;8.37;100.00
33280;BME280;20403;43.114;12.434;2023-03-19T03:49:42;99458.50;;;8.28;100.00
33280;BME280;20403;43.114;12.434;2023-03-19T03:52:08;99458.97;;;8.52;100.00
33280;BME280;20403;43.114;12.434;2023-03-19T03:54:34;99455.75;;;8.56;100.00
33280;BME280;20403;43.114;12.434;2023-03-19T03:56:59;99457.75;;;8.54;100.00
33280;BME280;20403;43.114;12.434;2023-03-19T03:59:26;99451.78;;;8.60;100.00
33280;BME280;20403;43.114;12.434;2023-03-19T04:01:51;99456.38;;;8.58;100.00
33280;BME280;20403;43.114;12.434;2023-03-19T04:04:17;99465.38;;;8.49;100.00
33280;BME280;20403;43.114;12.434;2023-03-19T04:06:44;99465.97;;;8.51;100.00
33280;BME280;20403;43.114;12.434;2023-03-19T04:09:09;99471.34;;;8.43;100.00
33280;BME280;20403;43.114;12.434;2023-03-19T04:11:35;99470.72;;;8.28;100.00
33280;BME280;20403;43.114;12.434;2023-03-19T04:14:01;99472.56;;;8.47;100.00
33280;BME280;20403;43.114;12.434;2023-03-19T04:16:28;99472.97;;;8.57;100.00
33280;BME280;20403;43.114;12.434;2023-03-19T04:18:54;99461.75;;;8.57;100.00
33280;BME280;20403;43.114;12.434;2023-03-19T04:21:19;99475.75;;;8.56;100.00
33280;BME280;20403;43.114;12.434;2023-03-19T04:23:45;99469.16;;;8.53;100.00
33280;BME280;20403;43.114;12.434;2023-03-19T04:26:11;99473.34;;;8.54;100.00
33280;BME280;20403;43.114;12.434;2023-03-19T04:28:37;99468.38;;;8.46;100.00
33280;BME280;20403;43.114;12.434;2023-03-19T04:31:05;99477.16;;;8.45;100.00
33280;BME280;20403;43.114;12.434;2023-03-19T04:33:31;99474.94;;;8.42;100.00
33280;BME280;20403;43.114;12.434;2023-03-19T04:35:58;99474.16;;;8.48;100.00
33280;BME280;20403;43.114;12.434;2023-03-19T04:38:24;99470.75;;;8.48;100.00
33280;BME280;20403;43.114;12.434;2023-03-19T04:40:53;99475.34;;;8.46;100.00
33280;BME280;20403;43.114;12.434;2023-03-19T04:43:18;99466.38;;;8.41;100.00
33280;BME280;20403;43.114;12.434;2023-03-19T04:45:44;99466.72;;;8.38;100.00
33280;BME280;20403;43.114;12.434;2023-03-19T04:48:09;99475.91;;;8.34;100.00
33280;BME280;20403;43.114;12.434;2023-03-19T04:50:36;99477.72;;;8.27;100.00
33280;BME280;20403;43.114;12.434;2023-03-19T04:53:01;99471.28;;;8.16;100.00
33280;BME280;20403;43.114;12.434;2023-03-19T04:55:27;99480.06;;;8.15;100.00
33280;BME280;20403;43.114;12.434;2023-03-19T04:57:52;99475.44;;;8.04;100.00
33280;BME280;20403;43.114;12.434;2023-03-19T05:00:18;99476.03;;;7.99;100.00
33280;BME280;20403;43.114;12.434;2023-03-19T05:02:44;99478.47;;;8.14;100.00
33280;BME280;20403;43.114;12.434;2023-03-19T05:05:10;99474.06;;;8.15;100.00
33280;BME280;20403;43.114;12.434;2023-03-19T05:07:37;99481.09;;;8.28;100.00
33280;BME280;20403;43.114;12.434;2023-03-19T05:10:03;99483.50;;;8.23;100.00
33280;BME280;20403;43.114;12.434;2023-03-19T05:12:29;99483.69;;;8.28;100.00
33280;BME280;20403;43.114;12.434;2023-03-19T05:14:54;99483.91;;;8.33;100.00
33280;BME280;20403;43.114;12.434;2023-03-19T05:17:20;99490.53;;;8.42;100.00
33280;BME280;20403;43.114;12.434;2023-03-19T05:19:45;99491.75;;;8.46;100.00
33280;BME280;20403;43.114;12.434;2023-03-19T05:22:11;99485.16;;;8.44;100.00
33280;BME280;20403;43.114;12.434;2023-03-19T05:24:36;99480.34;;;8.47;100.00
33280;BME280;20403;43.114;12.434;2023-03-19T05:27:02;99485.97;;;8.51;100.00
33280;BME280;20403;43.114;12.434;2023-03-19T05:29:28;99481.56;;;8.51;100.00
33280;BME280;20403;43.114;12.434;2023-03-19T05:31:53;99484.97;;;8.58;100.00
33280;BME280;20403;43.114;12.434;2023-03-19T05:34:19;99480.56;;;8.59;100.00
33280;BME280;20403;43.114;12.434;2023-03-19T05:36:45;99478.53;;;8.48;100.00
33280;BME280;20403;43.114;12.434;2023-03-19T05:39:10;99480.56;;;8.66;100.00
33280;BME280;20403;43.114;12.434;2023-03-19T05:41:36;99480.75;;;8.64;100.00
33280;BME280;20403;43.114;12.434;2023-03-19T05:44:01;99490.16;;;8.65;100.00
33280;BME280;20403;43.114;12.434;2023-03-19T05:46:27;99489.75;;;8.68;100.00
33280;BME280;20403;43.114;12.434;2023-03-19T05:48:52;99494.75;;;8.50;100.00
33280;BME280;20403;43.114;12.434;2023-03-19T05:51:17;99495.94;;;8.47;100.00
33280;BME280;20403;43.114;12.434;2023-03-19T05:53:43;99504.97;;;8.65;100.00
33280;BME280;20403;43.114;12.434;2023-03-19T05:56:08;99503.16;;;8.58;100.00
33280;BME280;20403;43.114;12.434;2023-03-19T05:58:34;99498.16;;;8.63;100.00
33280;BME280;20403;43.114;12.434;2023-03-19T06:01:00;99498.97;;;8.71;100.00
33280;BME280;20403;43.114;12.434;2023-03-19T06:03:26;99493.38;;;8.80;100.00
33280;BME280;20403;43.114;12.434;2023-03-19T06:05:52;99487.56;;;8.92;100.00
33280;BME280;20403;43.114;12.434;2023-03-19T06:08:18;99491.38;;;9.02;100.00
33280;BME280;20403;43.114;12.434;2023-03-19T06:10:44;99484.75;;;9.13;100.00
33280;BME280;20403;43.114;12.434;2023-03-19T06:13:09;99493.72;;;9.24;100.00
33280;BME280;20403;43.114;12.434;2023-03-19T06:15:35;99482.53;;;9.30;100.00
33280;BME280;20403;43.114;12.434;2023-03-19T06:18:01;99493.72;;;9.37;100.00
33280;BME280;20403;43.114;12.434;2023-03-19T06:20:26;99494.31;;;9.33;100.00
33280;BME280;20403;43.114;12.434;2023-03-19T06:22:52;99495.53;;;9.30;100.00
33280;BME280;20403;43.114;12.434;2023-03-19T06:25:17;99494.91;;;9.35;100.00
33280;BME280;20403;43.114;12.434;2023-03-19T06:27:43;99492.50;;;9.40;100.00
33280;BME280;20403;43.114;12.434;2023-03-19T06:30:09;99488.03;;;9.60;100.00
33280;BME280;20403;43.114;12.434;2023-03-19T06:32:34;99497.25;;;9.56;100.00
33280;BME280;20403;43.114;12.434;2023-03-19T06:35:00;99502.25;;;9.64;100.00
33280;BME280;20403;43.114;12.434;2023-03-19T06:37:26;99497.97;;;9.83;100.00
33280;BME280;20403;43.114;12.434;2023-03-19T06:39:51;99494.09;;;9.99;100.00
33280;BME280;20403;43.114;12.434;2023-03-19T06:42:19;99503.84;;;10.17;100.00
33280;BME280;20403;43.114;12.434;2023-03-19T06:44:45;99504.81;;;10.29;100.00
33280;BME280;20403;43.114;12.434;2023-03-19T06:47:11;99508.34;;;10.42;100.00
33280;BME280;20403;43.114;12.434;2023-03-19T06:49:36;99513.75;;;10.47;100.00
33280;BME280;20403;43.114;12.434;2023-03-19T06:52:02;99518.97;;;10.40;100.00
33280;BME280;20403;43.114;12.434;2023-03-19T06:54:27;99516.75;;;10.44;100.00
33280;BME280;20403;43.114;12.434;2023-03-19T06:56:53;99523.69;;;10.57;100.00
33280;BME280;20403;43.114;12.434;2023-03-19T06:59:18;99520.69;;;10.53;100.00
33280;BME280;20403;43.114;12.434;2023-03-19T07:01:44;99524.50;;;10.57;100.00
33280;BME280;20403;43.114;12.434;2023-03-19T07:04:11;99536.22;;;10.73;100.00
33280;BME280;20403;43.114;12.434;2023-03-19T07:06:36;99537.81;;;10.74;100.00
33280;BME280;20403;43.114;12.434;2023-03-19T07:09:02;99543.66;;;10.69;100.00
33280;BME280;20403;43.114;12.434;2023-03-19T07:11:28;99543.56;;;10.83;100.00
33280;BME280;20403;43.114;12.434;2023-03-19T07:13:53;99547.41;;;10.80;100.00
33280;BME280;20403;43.114;12.434;2023-03-19T07:16:19;99549.34;;;10.91;100.00
33280;BME280;20403;43.114;12.434;2023-03-19T07:18:44;99550.72;;;10.94;100.00
33280;BME280;20403;43.114;12.434;2023-03-19T07:21:10;99558.53;;;10.94;100.00
33280;BME280;20403;43.114;12.434;2023-03-19T07:23:35;99558.66;;;11.06;100.00
33280;BME280;20403;43.114;12.434;2023-03-19T07:26:01;99569.44;;;11.16;100.00
33280;BME280;20403;43.114;12.434;2023-03-19T07:28:26;99571.59;;;11.19;100.00
33280;BME280;20403;43.114;12.434;2023-03-19T07:30:52;99570.53;;;11.27;100.00
33280;BME280;20403;43.114;12.434;2023-03-19T07:33:19;99575.88;;;11.32;100.00
33280;BME280;20403;43.114;12.434;2023-03-19T07:35:45;99570.34;;;11.47;100.00
33280;BME280;20403;43.114;12.434;2023-03-19T07:38:10;99574.72;;;11.53;100.00
33280;BME280;20403;43.114;12.434;2023-03-19T07:40:36;99567.03;;;11.58;100.00
33280;BME280;20403;43.114;12.434;2023-03-19T07:43:01;99566.09;;;11.71;100.00
33280;BME280;20403;43.114;12.434;2023-03-19T07:45:27;99568.16;;;11.87;100.00
33280;BME280;20403;43.114;12.434;2023-03-19T07:47:53;99572.44;;;12.00;100.00
33280;BME280;20403;43.114;12.434;2023-03-19T07:50:18;99569.81;;;12.18;100.00
33280;BME280;20403;43.114;12.434;2023-03-19T07:52:48;99568.53;;;12.39;100.00
33280;BME280;20403;43.114;12.434;2023-03-19T07:55:15;99577.13;;;12.58;100.00
33280;BME280;20403;43.114;12.434;2023-03-19T07:57:41;99565.78;;;12.65;100.00
33280;BME280;20403;43.114;12.434;2023-03-19T08:00:07;99571.72;;;12.72;100.00
33280;BME280;20403;43.114;12.434;2023-03-19T08:02:33;99576.28;;;12.88;100.00
33280;BME280;20403;43.114;12.434;2023-03-19T08:04:58;99577.25;;;13.17;100.00
33280;BME280;20403;43.114;12.434;2023-03-19T08:07:26;99571.94;;;13.48;100.00
33280;BME280;20403;43.114;12.434;2023-03-19T08:09:52;99575.44;;;13.77;100.00
33280;BME280;20403;43.114;12.434;2023-03-19T08:12:17;99575.16;;;14.02;100.00
33280;BME280;20403;43.114;12.434;2023-03-19T08:14:42;99576.78;;;14.32;100.00
33280;BME280;20403;43.114;12.434;2023-03-19T08:17:08;99573.13;;;14.61;100.00
33280;BME280;20403;43.114;12.434;2023-03-19T08:19:33;99571.50;;;14.72;100.00
33280;BME280;20403;43.114;12.434;2023-03-19T08:21:59;99572.28;;;14.89;100.00
33280;BME280;20403;43.114;12.434;2023-03-19T08:24:24;99576.53;;;14.90;100.00
33280;BME280;20403;43.114;12.434;2023-03-19T08:26:50;99577.09;;;15.09;100.00
33280;BME280;20403;43.114;12.434;2023-03-19T08:29:15;99576.19;;;15.04;100.00
33280;BME280;20403;43.114;12.434;2023-03-19T08:31:41;99578.03;;;15.03;100.00
33280;BME280;20403;43.114;12.434;2023-03-19T08:34:07;99579.31;;;14.84;100.00
33280;BME280;20403;43.114;12.434;2023-03-19T08:36:35;99575.91;;;14.71;100.00
33280;BME280;20403;43.114;12.434;2023-03-19T08:39:00;99565.69;;;14.70;100.00
33280;BME280;20403;43.114;12.434;2023-03-19T08:41:26;99576.63;;;14.67;100.00
33280;BME280;20403;43.114;12.434;2023-03-19T08:43:51;99580.66;;;14.58;100.00
33280;BME280;20403;43.114;12.434;2023-03-19T08:46:17;99584.16;;;14.46;100.00
33280;BME280;20403;43.114;12.434;2023-03-19T08:48:43;99585.84;;;14.41;100.00
33280;BME280;20403;43.114;12.434;2023-03-19T08:51:09;99594.63;;;14.46;100.00
33280;BME280;20403;43.114;12.434;2023-03-19T08:53:35;99591.09;;;14.41;100.00
33280;BME280;20403;43.114;12.434;2023-03-19T08:56:04;99584.28;;;14.40;100.00
33280;BME280;20403;43.114;12.434;2023-03-19T08:58:30;99586.25;;;14.33;100.00
33280;BME280;20403;43.114;12.434;2023-03-19T09:01:09;99588.75;;;14.27;100.00
33280;BME280;20403;43.114;12.434;2023-03-19T09:03:38;99585.44;;;14.32;100.00
33280;BME280;20403;43.114;12.434;2023-03-19T09:06:06;99586.03;;;14.22;100.00
33280;BME280;20403;43.114;12.434;2023-03-19T09:08:32;99594.56;;;14.29;100.00
33280;BME280;20403;43.114;12.434;2023-03-19T09:10:58;99594.13;;;14.33;100.00
33280;BME280;20403;43.114;12.434;2023-03-19T09:13:24;99586.78;;;14.35;100.00
33280;BME280;20403;43.114;12.434;2023-03-19T09:15:51;99594.34;;;14.31;100.00
33280;BME280;20403;43.114;12.434;2023-03-19T09:18:17;99592.47;;;14.15;100.00
33280;BME280;20403;43.114;12.434;2023-03-19T09:20:44;99594.94;;;14.21;100.00
33280;BME280;20403;43.114;12.434;2023-03-19T09:23:10;99590.28;;;14.12;100.00
33280;BME280;20403;43.114;12.434;2023-03-19T09:25:35;99586.75;;;14.18;100.00
33280;BME280;20403;43.114;12.434;2023-03-19T09:28:00;99590.03;;;14.25;100.00
33280;BME280;20403;43.114;12.434;2023-03-19T09:30:26;99583.72;;;14.38;100.00
33280;BME280;20403;43.114;12.434;2023-03-19T09:32:51;99582.53;;;14.45;100.00
33280;BME280;20403;43.114;12.434;2023-03-19T09:35:17;99595.97;;;14.20;100.00
33280;BME280;20403;43.114;12.434;2023-03-19T09:37:42;99593.25;;;14.44;100.00
33280;BME280;20403;43.114;12.434;2023-03-19T09:40:19;99583.78;;;14.71;100.00
33280;BME280;20403;43.114;12.434;2023-03-19T09:43:15;99593.03;;;14.74;100.00
33280;BME280;20403;43.114;12.434;2023-03-19T09:45:44;99595.88;;;14.56;100.00
33280;BME280;20403;43.114;12.434;2023-03-19T09:48:15;99600.75;;;14.52;100.00
33280;BME280;20403;43.114;12.434;2023-03-19T09:50:42;99608.84;;;14.50;100.00
33280;BME280;20403;43.114;12.434;2023-03-19T09:53:17;99609.69;;;14.11;100.00
33280;BME280;20403;43.114;12.434;2023-03-19T09:55:48;99595.78;;;14.39;100.00
33280;BME280;20403;43.114;12.434;2023-03-19T09:58:21;99602.59;;;14.52;100.00
33280;BME280;20403;43.114;12.434;2023-03-19T10:00:51;99592.56;;;14.60;100.00
33280;BME280;20403;43.114;12.434;2023-03-19T10:11:58;99593.25;;;14.44;100.00
33280;BME280;20403;43.114;12.434;2023-03-19T10:17:40;99590.63;;;14.56;100.00
33280;BME280;20403;43.114;12.434;2023-03-19T10:25:56;99581.13;;;14.26;100.00
33280;BME280;20403;43.114;12.434;2023-03-19T10:28:26;99576.84;;;14.37;100.00
33280;BME280;20403;43.114;12.434;2023-03-19T10:31:21;99581.34;;;14.53;100.00
33280;BME280;20403;43.114;12.434;2023-03-19T10:36:30;99568.38;;;14.75;100.00
33280;BME280;20403;43.114;12.434;2023-03-19T10:38:58;99575.34;;;14.69;100.00
33280;BME280;20403;43.114;12.434;2023-03-19T10:43:58;99577.69;;;14.66;100.00
33280;BME280;20403;43.114;12.434;2023-03-19T10:46:24;99571.66;;;14.82;100.00
33280;BME280;20403;43.114;12.434;2023-03-19T10:48:50;99569.50;;;14.96;100.00
33280;BME280;20403;43.114;12.434;2023-03-19T10:51:21;99568.47;;;15.14;100.00
33280;BME280;20403;43.114;12.434;2023-03-19T10:53:51;99569.34;;;15.03;100.00
33280;BME280;20403;43.114;12.434;2023-03-19T10:56:26;99566.25;;;15.06;100.00
33280;BME280;20403;43.114;12.434;2023-03-19T10:59:02;99562.81;;;15.05;100.00
33280;BME280;20403;43.114;12.434;2023-03-19T11:01:33;99551.84;;;14.75;100.00
33280;BME280;20403;43.114;12.434;2023-03-19T11:04:00;99557.06;;;14.58;100.00
33280;BME280;20403;43.114;12.434;2023-03-19T11:06:31;99559.53;;;14.36;100.00
33280;BME280;20403;43.114;12.434;2023-03-19T11:09:00;99547.03;;;14.55;100.00
33280;BME280;20403;43.114;12.434;2023-03-19T11:14:13;99535.44;;;14.84;100.00
33280;BME280;20403;43.114;12.434;2023-03-19T11:17:02;99520.81;;;15.05;100.00
33280;BME280;20403;43.114;12.434;2023-03-19T11:19:30;99524.63;;;15.15;100.00
33280;BME280;20403;43.114;12.434;2023-03-19T11:22:15;99528.75;;;15.27;100.00
33280;BME280;20403;43.114;12.434;2023-03-19T11:24:49;99523.56;;;15.32;100.00
33280;BME280;20403;43.114;12.434;2023-03-19T11:27:15;99527.31;;;15.37;100.00
33280;BME280;20403;43.114;12.434;2023-03-19T11:29:42;99518.81;;;15.51;100.00
33280;BME280;20403;43.114;12.434;2023-03-19T11:34:57;99516.34;;;15.45;100.00
33280;BME280;20403;43.114;12.434;2023-03-19T11:37:32;99514.31;;;15.69;100.00
33280;BME280;20403;43.114;12.434;2023-03-19T11:42:54;99509.22;;;15.62;100.00
33280;BME280;20403;43.114;12.434;2023-03-19T11:45:38;99496.81;;;15.58;100.00
33280;BME280;20403;43.114;12.434;2023-03-19T12:01:12;99478.66;;;15.56;100.00
33280;BME280;20403;43.114;12.434;2023-03-19T12:12:33;99469.91;;;15.50;100.00
33280;BME280;20403;43.114;12.434;2023-03-19T12:15:15;99465.44;;;15.51;100.00
33280;BME280;20403;43.114;12.434;2023-03-19T12:23:05;99464.16;;;15.53;100.00
33280;BME280;20403;43.114;12.434;2023-03-19T12:34:09;99471.97;;;15.26;100.00
33280;BME280;20403;43.114;12.434;2023-03-19T12:36:41;99480.81;;;15.20;100.00
33280;BME280;20403;43.114;12.434;2023-03-19T12:39:12;99472.06;;;15.15;100.00
33280;BME280;20403;43.114;12.434;2023-03-19T12:41:42;99474.66;;;15.09;100.00
33280;BME280;20403;43.114;12.434;2023-03-19T12:44:25;99474.97;;;14.96;100.00
33280;BME280;20403;43.114;12.434;2023-03-19T12:46:57;99472.75;;;14.88;100.00
33280;BME280;20403;43.114;12.434;2023-03-19T12:52:18;99468.78;;;14.85;100.00
33280;BME280;20403;43.114;12.434;2023-03-19T12:54:51;99471.50;;;14.90;100.00
33280;BME280;20403;43.114;12.434;2023-03-19T12:57:28;99475.56;;;14.81;100.00
33280;BME280;20403;43.114;12.434;2023-03-19T13:07:44;99466.31;;;14.79;100.00
33280;BME280;20403;43.114;12.434;2023-03-19T13:10:17;99465.84;;;14.82;100.00
33280;BME280;20403;43.114;12.434;2023-03-19T13:12:44;99474.13;;;14.90;100.00
33280;BME280;20403;43.114;12.434;2023-03-19T13:23:19;99475.53;;;14.98;100.00
33280;BME280;20403;43.114;12.434;2023-03-19T13:25:48;99467.94;;;15.02;100.00
33280;BME280;20403;43.114;12.434;2023-03-19T13:28:24;99465.88;;;15.04;100.00
33280;BME280;20403;43.114;12.434;2023-03-19T13:31:20;99468.78;;;15.02;100.00
33280;BME280;20403;43.114;12.434;2023-03-19T13:34:06;99469.31;;;15.04;100.00
33280;BME280;20403;43.114;12.434;2023-03-19T13:36:44;99465.88;;;15.04;100.00
33280;BME280;20403;43.114;12.434;2023-03-19T13:39:15;99467.22;;;15.06;100.00
33280;BME280;20403;43.114;12.434;2023-03-19T13:44:53;99467.50;;;15.05;100.00
33280;BME280;20403;43.114;12.434;2023-03-19T13:52:46;99463.34;;;14.92;100.00
33280;BME280;20403;43.114;12.434;2023-03-19T13:58:05;99466.13;;;15.02;100.00
33280;BME280;20403;43.114;12.434;2023-03-19T14:03:40;99460.63;;;15.21;100.00
33280;BME280;20403;43.114;12.434;2023-03-19T14:08:55;99457.44;;;15.41;100.00
33280;BME280;20403;43.114;12.434;2023-03-19T14:11:27;99457.19;;;15.42;100.00
33280;BME280;20403;43.114;12.434;2023-03-19T14:13:54;99459.59;;;15.44;100.00
33280;BME280;20403;43.114;12.434;2023-03-19T14:16:23;99464.41;;;15.52;100.00
33280;BME280;20403;43.114;12.434;2023-03-19T14:18:55;99454.69;;;15.52;100.00
33280;BME280;20403;43.114;12.434;2023-03-19T14:26:45;99455.69;;;15.46;100.00
33280;BME280;20403;43.114;12.434;2023-03-19T14:29:13;99453.41;;;15.55;100.00
33280;BME280;20403;43.114;12.434;2023-03-19T14:31:48;99453.88;;;15.52;100.00
33280;BME280;20403;43.114;12.434;2023-03-19T14:34:33;99449.91;;;15.49;100.00
33280;BME280;20403;43.114;12.434;2023-03-19T14:37:16;99452.69;;;15.60;100.00
33280;BME280;20403;43.114;12.434;2023-03-19T14:39:46;99439.88;;;15.68;100.00
33280;BME280;20403;43.114;12.434;2023-03-19T14:44:48;99437.13;;;15.80;100.00